createdAt,value
2018-12-08T00:00:11.410Z,93.50
2018-12-08T00:02:40.033Z,93.20
2018-12-08T00:05:08.533Z,93.20
2018-12-08T00:07:37.083Z,92.80
2018-12-08T00:10:05.857Z,92.50
2018-12-08T00:12:34.178Z,92.40
2018-12-08T00:15:02.926Z,92.30
2018-12-08T00:17:31.362Z,92.00
2018-12-08T00:19:59.904Z,92.00
2018-12-08T00:22:28.285Z,91.90
2018-12-08T00:24:56.703Z,91.10
2018-12-08T00:27:25.106Z,91.30
2018-12-08T00:29:53.651Z,91.30
2018-12-08T00:32:21.953Z,91.10
2018-12-08T00:34:50.348Z,90.40
2018-12-08T00:37:18.770Z,89.30
2018-12-08T00:39:47.198Z,89.20
2018-12-08T00:42:15.494Z,88.20
2018-12-08T00:44:44.705Z,87.80
2018-12-08T00:47:13.018Z,87.90
2018-12-08T00:49:41.465Z,87.80
2018-12-08T00:52:10.056Z,87.40
2018-12-08T00:54:38.473Z,86.30
2018-12-08T00:57:06.807Z,87.30
2018-12-08T00:59:35.206Z,85.60
2018-12-08T01:02:04.029Z,84.90
2018-12-08T01:04:32.473Z,84.30
2018-12-08T01:07:00.810Z,85.20
2018-12-08T01:09:29.164Z,86.00
2018-12-08T01:11:58.129Z,84.40
2018-12-08T01:14:26.619Z,84.10
2018-12-08T01:16:55.066Z,83.50
2018-12-08T01:19:24.553Z,82.70
2018-12-08T01:21:53.025Z,83.70
2018-12-08T01:24:21.497Z,84.00
2018-12-08T01:26:50.024Z,83.70
2018-12-08T01:29:18.846Z,83.60
2018-12-08T01:31:47.270Z,82.80
2018-12-08T01:34:15.788Z,83.50
2018-12-08T01:36:44.346Z,83.70
2018-12-08T01:39:13.178Z,82.90
2018-12-08T01:41:41.665Z,84.00
2018-12-08T01:44:12.133Z,84.50
2018-12-08T01:46:39.430Z,84.00
2018-12-08T01:49:06.873Z,84.30
2018-12-08T01:51:36.071Z,84.40
2018-12-08T01:54:04.628Z,84.20
2018-12-08T01:56:32.946Z,83.10
2018-12-08T01:59:01.303Z,82.70
2018-12-08T02:01:30.314Z,78.30
2018-12-08T02:03:57.678Z,73.80
2018-12-08T02:06:26.210Z,73.40
2018-12-08T02:08:54.929Z,71.30
2018-12-08T02:11:25.035Z,73.00
2018-12-08T02:13:53.876Z,73.40
2018-12-08T02:16:22.287Z,70.70
2018-12-08T02:18:50.592Z,72.20
2018-12-08T02:21:19.101Z,70.70
2018-12-08T02:23:47.538Z,71.00
2018-12-08T02:26:15.969Z,71.10
2018-12-08T02:28:44.565Z,71.20
2018-12-08T02:31:13.179Z,69.50
2018-12-08T02:33:41.485Z,72.30
2018-12-08T02:36:09.997Z,72.20
2018-12-08T02:38:38.425Z,71.30
2018-12-08T02:41:07.037Z,72.70
2018-12-08T02:43:35.462Z,72.70
2018-12-08T02:46:03.887Z,73.70
2018-12-08T02:48:32.361Z,75.00
2018-12-08T02:51:02.441Z,74.90
2018-12-08T02:53:30.867Z,73.80
2018-12-08T02:55:59.426Z,74.10
2018-12-08T02:58:27.812Z,75.20
2018-12-08T03:00:56.285Z,73.60
2018-12-08T03:03:25.133Z,72.50
2018-12-08T03:05:53.493Z,71.70
2018-12-08T03:08:21.898Z,71.90
2018-12-08T03:10:50.429Z,70.60
2018-12-08T03:13:18.893Z,71.50
2018-12-08T03:15:47.285Z,71.20
2018-12-08T03:18:15.921Z,72.00
2018-12-08T03:20:44.324Z,70.20
2018-12-08T03:23:13.589Z,71.50
2018-12-08T03:25:42.012Z,70.60
2018-12-08T03:28:10.309Z,71.00
2018-12-08T03:30:38.704Z,72.00
2018-12-08T03:33:07.085Z,71.30
2018-12-08T03:35:35.608Z,69.80
2018-12-08T03:38:04.164Z,70.20
2018-12-08T03:40:31.449Z,70.20
2018-12-08T03:43:00.043Z,69.30
2018-12-08T03:45:28.518Z,68.80
2018-12-08T03:47:59.385Z,69.30
2018-12-08T03:50:27.748Z,69.40
2018-12-08T03:52:56.181Z,69.00
2018-12-08T03:55:27.519Z,68.80
2018-12-08T03:57:55.987Z,67.70
2018-12-08T04:00:24.442Z,67.70
2018-12-08T04:02:52.928Z,68.80
2018-12-08T04:05:21.354Z,67.20
2018-12-08T04:07:49.709Z,68.60
2018-12-08T04:10:18.172Z,67.60
2018-12-08T04:12:46.551Z,66.90
2018-12-08T04:15:16.279Z,68.30
2018-12-08T04:17:44.674Z,67.70
2018-12-08T04:20:12.985Z,66.80
2018-12-08T04:22:41.345Z,67.30
2018-12-08T04:25:09.935Z,67.00
2018-12-08T04:27:38.312Z,66.30
2018-12-08T04:30:06.954Z,67.40
2018-12-08T04:32:35.473Z,66.80
2018-12-08T04:35:03.022Z,65.60
2018-12-08T04:37:31.337Z,67.20
2018-12-08T04:39:59.800Z,69.50
2018-12-08T04:42:28.256Z,69.40
2018-12-08T04:44:56.540Z,72.10
2018-12-08T04:47:25.029Z,74.60
2018-12-08T04:49:53.435Z,78.90
2018-12-08T04:52:21.932Z,78.30
2018-12-08T04:54:50.302Z,78.70
2018-12-08T04:57:19.098Z,77.70
2018-12-08T04:59:47.826Z,77.10
2018-12-08T05:02:16.232Z,75.90
2018-12-08T05:04:44.858Z,76.00
2018-12-08T05:07:13.179Z,75.60
2018-12-08T05:09:41.559Z,74.60
2018-12-08T05:12:09.856Z,73.50
2018-12-08T05:14:38.825Z,73.90
2018-12-08T05:17:07.142Z,73.90
2018-12-08T05:19:35.876Z,75.70
2018-12-08T05:22:04.324Z,75.80
2018-12-08T05:24:31.828Z,78.70
2018-12-08T05:27:00.570Z,79.90
2018-12-08T05:29:29.025Z,81.20
2018-12-08T05:31:57.409Z,80.40
2018-12-08T05:34:27.270Z,83.20
2018-12-08T05:36:55.675Z,82.90
2018-12-08T05:39:24.160Z,82.30
2018-12-08T05:41:52.685Z,82.50
2018-12-08T05:44:21.001Z,82.20
2018-12-08T05:46:49.529Z,83.30
2018-12-08T05:49:17.797Z,83.40
2018-12-08T05:51:46.200Z,83.90
2018-12-08T05:54:14.611Z,84.80
2018-12-08T05:56:44.630Z,84.80
2018-12-08T05:59:13.037Z,83.20
2018-12-08T06:01:41.440Z,83.30
2018-12-08T06:04:10.212Z,84.40
2018-12-08T06:06:38.941Z,86.30
2018-12-08T06:09:06.665Z,86.90
2018-12-08T06:11:35.096Z,87.20
2018-12-08T06:14:03.618Z,90.20
2018-12-08T06:16:32.105Z,90.60
2018-12-08T06:19:00.581Z,90.90
2018-12-08T06:21:36.191Z,90.60
2018-12-08T06:24:04.842Z,90.60
2018-12-08T06:26:38.893Z,91.00
2018-12-08T06:29:07.497Z,91.10
2018-12-08T06:31:36.000Z,90.50
2018-12-08T06:34:04.533Z,91.10
2018-12-08T06:36:32.817Z,90.30
2018-12-08T06:39:01.204Z,90.50
2018-12-08T06:41:31.133Z,91.10
2018-12-08T06:43:59.837Z,89.60
2018-12-08T06:46:28.150Z,89.10
2018-12-08T06:48:56.667Z,87.80
2018-12-08T06:51:25.105Z,87.40
2018-12-08T06:53:53.488Z,86.50
2018-12-08T06:56:21.927Z,86.40
2018-12-08T06:58:50.383Z,87.40
2018-12-08T07:01:18.884Z,83.80
2018-12-08T07:03:47.276Z,83.50
2018-12-08T07:06:15.797Z,83.80
2018-12-08T07:08:44.194Z,84.30
2018-12-08T07:11:12.581Z,83.40
2018-12-08T07:13:41.000Z,80.30
2018-12-08T07:16:11.612Z,80.10
2018-12-08T07:18:39.929Z,78.80
2018-12-08T07:21:08.296Z,79.70
2018-12-08T07:23:37.028Z,78.30
2018-12-08T07:26:05.566Z,79.70
2018-12-08T07:28:33.991Z,79.10
2018-12-08T07:31:03.774Z,77.60
2018-12-08T07:33:32.164Z,77.40
2018-12-08T07:36:00.753Z,78.30
2018-12-08T07:38:29.176Z,79.90
2018-12-08T07:40:57.549Z,81.70
2018-12-08T07:43:26.013Z,84.30
2018-12-08T07:45:54.387Z,87.00
2018-12-08T07:48:22.781Z,86.10
2018-12-08T07:50:51.294Z,87.90
2018-12-08T07:53:19.696Z,89.20
2018-12-08T07:55:48.208Z,89.60
2018-12-08T07:58:16.633Z,90.10
2018-12-08T08:00:45.197Z,91.10
2018-12-08T08:03:13.653Z,91.10
2018-12-08T08:05:41.965Z,91.10
2018-12-08T08:08:10.278Z,91.10
2018-12-08T08:10:38.654Z,91.20
2018-12-08T08:13:07.081Z,91.30
2018-12-08T08:15:35.457Z,91.80
2018-12-08T08:18:03.996Z,92.10
2018-12-08T08:20:32.501Z,92.90
2018-12-08T08:23:00.929Z,92.90
2018-12-08T08:25:29.461Z,93.10
2018-12-08T08:27:57.804Z,93.00
2018-12-08T08:30:26.219Z,92.80
2018-12-08T08:32:54.648Z,93.90
2018-12-08T08:35:23.434Z,94.20
2018-12-08T08:37:51.920Z,94.00
2018-12-08T08:40:20.441Z,94.20
2018-12-08T08:42:48.941Z,94.60
2018-12-08T08:45:16.351Z,94.50
2018-12-08T08:47:44.761Z,94.10
2018-12-08T08:50:13.518Z,94.00
2018-12-08T08:52:42.019Z,94.50
2018-12-08T08:55:10.520Z,94.00
2018-12-08T08:57:38.928Z,93.90
2018-12-08T09:00:09.148Z,93.80
2018-12-08T09:02:37.663Z,93.80
2018-12-08T09:05:06.640Z,94.00
2018-12-08T09:07:35.254Z,94.90
2018-12-08T09:10:07.581Z,95.10
2018-12-08T09:12:36.024Z,95.60
2018-12-08T09:15:06.158Z,96.00
2018-12-08T09:17:34.537Z,96.00
2018-12-08T09:20:03.991Z,96.50
2018-12-08T09:22:31.312Z,96.60
2018-12-08T09:25:01.450Z,96.30
2018-12-08T09:27:29.890Z,96.80
2018-12-08T09:29:58.290Z,97.10
2018-12-08T09:32:26.758Z,97.10
2018-12-08T09:34:55.177Z,97.40
2018-12-08T09:37:23.612Z,97.40
2018-12-08T09:39:51.928Z,97.30
2018-12-08T09:42:20.447Z,97.70
2018-12-08T09:44:49.102Z,97.70
2018-12-08T09:47:17.901Z,97.80
2018-12-08T09:49:46.451Z,97.70
2018-12-08T09:52:15.197Z,97.90
2018-12-08T09:54:42.516Z,97.50
2018-12-08T09:57:11.034Z,97.20
2018-12-08T09:59:39.486Z,97.60
2018-12-08T10:02:07.883Z,98.00
2018-12-08T10:04:36.315Z,98.30
2018-12-08T10:07:04.741Z,98.50
2018-12-08T10:09:33.043Z,98.90
2018-12-08T10:12:01.962Z,99.40
2018-12-08T10:14:30.693Z,99.90
2018-12-08T10:16:59.106Z,99.90
2018-12-08T10:19:27.752Z,99.90
2018-12-08T10:21:56.262Z,99.90
2018-12-08T10:24:24.573Z,99.90
2018-12-08T10:26:52.966Z,99.90
2018-12-08T10:29:22.708Z,99.90
2018-12-08T10:31:52.348Z,99.90
2018-12-08T10:34:21.567Z,99.90
2018-12-08T10:36:50.097Z,99.90
2018-12-08T10:39:18.918Z,99.90
2018-12-08T10:41:47.393Z,99.90
2018-12-08T10:44:15.918Z,99.90
2018-12-08T10:46:44.534Z,99.90
2018-12-08T10:49:12.949Z,99.90
2018-12-08T10:51:41.341Z,99.90
2018-12-08T10:54:09.800Z,99.90
2018-12-08T10:56:38.298Z,99.90
2018-12-08T10:59:06.759Z,99.90
2018-12-08T11:01:40.941Z,99.90
2018-12-08T11:04:09.466Z,99.90
2018-12-08T11:06:38.134Z,99.90
2018-12-08T11:09:06.870Z,99.90
2018-12-08T11:11:35.344Z,99.90
2018-12-08T11:14:05.855Z,99.90
2018-12-08T11:16:34.198Z,99.90
2018-12-08T11:19:02.773Z,99.90
2018-12-08T11:21:31.341Z,99.90
2018-12-08T11:23:59.838Z,99.90
2018-12-08T11:26:28.387Z,99.90
2018-12-08T11:28:56.804Z,99.90
2018-12-08T11:31:25.229Z,99.90
2018-12-08T11:33:53.553Z,99.90
2018-12-08T11:36:22.089Z,99.90
2018-12-08T11:38:50.512Z,99.90
2018-12-08T11:41:18.988Z,99.90
2018-12-08T11:43:47.482Z,99.90
2018-12-08T11:46:16.033Z,99.90
2018-12-08T11:48:44.524Z,99.90
2018-12-08T11:51:13.224Z,99.90
2018-12-08T11:53:41.614Z,99.90
2018-12-08T11:56:10.098Z,99.90
2018-12-08T11:58:38.423Z,99.90
2018-12-08T12:01:07.010Z,99.90
2018-12-08T12:03:35.608Z,99.90
2018-12-08T12:06:04.285Z,99.90
2018-12-08T12:08:32.739Z,99.90
2018-12-08T12:11:01.306Z,99.90
2018-12-08T12:13:29.747Z,99.90
2018-12-08T12:15:58.043Z,99.90
2018-12-08T12:18:26.473Z,99.90
2018-12-08T12:20:55.007Z,99.90
2018-12-08T12:23:22.297Z,99.90
2018-12-08T12:25:50.822Z,99.90
2018-12-08T12:28:19.301Z,99.90
2018-12-08T12:30:47.933Z,99.90
2018-12-08T12:33:16.432Z,99.90
2018-12-08T12:35:44.919Z,99.90
2018-12-08T12:38:13.308Z,99.90
2018-12-08T12:40:41.865Z,99.90
2018-12-08T12:43:10.133Z,99.90
2018-12-08T12:45:38.629Z,99.90
2018-12-08T12:48:07.049Z,99.90
2018-12-08T12:50:35.569Z,99.90
2018-12-08T12:53:03.887Z,99.90
2018-12-08T12:55:32.399Z,99.90
2018-12-08T12:58:00.945Z,99.90
2018-12-08T13:00:29.380Z,99.90
2018-12-08T13:02:57.908Z,99.90
2018-12-08T13:05:26.345Z,99.90
2018-12-08T13:07:54.866Z,99.90
2018-12-08T13:10:23.406Z,99.90
2018-12-08T13:12:52.068Z,99.90
2018-12-08T13:15:20.660Z,99.90
2018-12-08T13:17:53.415Z,99.90
2018-12-08T13:20:21.992Z,99.50
2018-12-08T13:22:50.428Z,99.50
2018-12-08T13:25:21.932Z,99.40
2018-12-08T13:27:56.682Z,99.40
2018-12-08T13:30:24.035Z,99.40
2018-12-08T13:32:51.298Z,99.20
2018-12-08T13:35:31.173Z,98.90
2018-12-08T13:38:00.620Z,98.50
2018-12-08T13:40:28.920Z,98.80
2018-12-08T13:42:57.316Z,98.60
2018-12-08T13:45:25.774Z,98.60
2018-12-08T13:47:54.230Z,98.60
2018-12-08T13:50:24.912Z,98.90
2018-12-08T13:52:53.446Z,98.60
2018-12-08T13:55:21.872Z,98.80
2018-12-08T13:57:50.484Z,98.70
2018-12-08T14:00:19.185Z,98.60
2018-12-08T14:02:49.121Z,98.50
2018-12-08T14:05:17.762Z,98.40
2018-12-08T14:07:46.135Z,98.00
2018-12-08T14:10:14.722Z,97.00
2018-12-08T14:12:47.116Z,77.90
2018-12-08T14:15:14.499Z,78.80
2018-12-08T14:17:41.822Z,80.70
2018-12-08T14:20:21.813Z,76.90
2018-12-08T14:22:50.433Z,80.20
2018-12-08T14:25:18.974Z,83.80
2018-12-08T14:27:47.563Z,89.10
2018-12-08T14:30:16.023Z,91.20
2018-12-08T14:32:44.563Z,92.00
2018-12-08T14:35:13.066Z,93.30
2018-12-08T14:37:41.457Z,93.60
2018-12-08T14:40:10.000Z,94.50
2018-12-08T14:42:38.650Z,93.60
2018-12-08T14:45:10.549Z,93.30
2018-12-08T14:47:39.102Z,92.80
2018-12-08T14:50:10.167Z,92.90
2018-12-08T14:52:38.718Z,92.90
2018-12-08T14:55:08.367Z,93.20
2018-12-08T14:57:36.947Z,92.90
2018-12-08T15:00:10.963Z,92.00
2018-12-08T15:02:38.443Z,91.40
2018-12-08T15:05:07.963Z,91.00
2018-12-08T15:07:36.487Z,90.10
2018-12-08T15:10:12.916Z,90.40
2018-12-08T15:12:41.222Z,89.70
2018-12-08T15:15:10.258Z,89.10
2018-12-08T15:17:41.322Z,90.40
2018-12-08T15:20:09.890Z,90.70
2018-12-08T15:22:38.505Z,89.70
2018-12-08T15:25:08.821Z,87.50
2018-12-08T15:27:37.366Z,86.10
2018-12-08T15:30:07.559Z,86.20
2018-12-08T15:32:38.477Z,82.80
2018-12-08T15:35:09.002Z,80.70
2018-12-08T15:37:38.104Z,80.60
2018-12-08T15:40:08.748Z,76.90
2018-12-08T15:42:37.584Z,77.40
2018-12-08T15:45:08.890Z,73.80
2018-12-08T15:47:37.417Z,73.00
2018-12-08T15:50:07.833Z,74.70
2018-12-08T15:52:36.665Z,72.40
2018-12-08T15:55:05.464Z,70.50
2018-12-08T15:57:34.271Z,70.90
2018-12-08T16:00:03.463Z,68.60
2018-12-08T16:02:30.798Z,67.20
2018-12-08T16:04:59.338Z,68.00
2018-12-08T16:07:27.886Z,65.90
2018-12-08T16:09:56.317Z,66.60
2018-12-08T16:12:24.614Z,65.30
2018-12-08T16:14:53.137Z,60.20
2018-12-08T16:17:22.087Z,60.30
2018-12-08T16:19:50.482Z,58.50
2018-12-08T16:22:19.087Z,57.70
2018-12-08T16:24:47.516Z,58.20
2018-12-08T16:27:16.120Z,54.00
2018-12-08T16:29:44.468Z,53.30
2018-12-08T16:32:12.930Z,53.60
2018-12-08T16:34:41.224Z,53.00
2018-12-08T16:37:09.836Z,53.00
2018-12-08T16:39:38.238Z,54.80
2018-12-08T16:42:06.873Z,51.40
2018-12-08T16:44:35.606Z,50.40
2018-12-08T16:47:03.889Z,50.50
2018-12-08T16:49:32.300Z,46.20
2018-12-08T16:52:00.789Z,47.80
2018-12-08T16:54:29.175Z,45.70
2018-12-08T16:56:57.569Z,47.00
2018-12-08T16:59:25.873Z,47.30
2018-12-08T17:01:57.304Z,46.90
2018-12-08T17:04:24.726Z,46.90
2018-12-08T17:06:53.380Z,47.70
2018-12-08T17:09:21.709Z,50.00
2018-12-08T17:11:50.122Z,50.50
2018-12-08T17:14:18.898Z,53.90
2018-12-08T17:16:47.627Z,54.30
2018-12-08T17:19:15.960Z,55.50
2018-12-08T17:21:44.526Z,57.60
2018-12-08T17:24:13.753Z,56.60
2018-12-08T17:26:42.226Z,58.00
2018-12-08T17:29:10.502Z,59.70
2018-12-08T17:31:38.985Z,62.20
2018-12-08T17:34:07.450Z,62.60
2018-12-08T17:36:35.813Z,63.40
2018-12-08T17:39:05.773Z,63.30
2018-12-08T17:41:34.205Z,63.00
2018-12-08T17:44:03.603Z,64.80
2018-12-08T17:46:32.610Z,66.00
2018-12-08T17:49:01.335Z,67.70
2018-12-08T17:51:29.880Z,68.40
2018-12-08T17:54:01.790Z,70.70
2018-12-08T17:56:30.728Z,72.50
2018-12-08T17:58:59.389Z,74.70
2018-12-08T18:01:27.957Z,78.40
2018-12-08T18:04:01.813Z,87.40
2018-12-08T18:06:29.284Z,92.30
2018-12-08T18:08:57.818Z,93.00
2018-12-08T18:11:26.346Z,94.20
2018-12-08T18:13:54.938Z,96.80
2018-12-08T18:16:25.606Z,97.80
2018-12-08T18:18:54.018Z,99.30
2018-12-08T18:21:22.683Z,99.90
2018-12-08T18:23:51.099Z,99.90
2018-12-08T18:26:19.598Z,99.90
2018-12-08T18:28:49.162Z,99.90
2018-12-08T18:31:17.672Z,99.90
2018-12-08T18:33:45.964Z,99.90
2018-12-08T18:36:14.418Z,99.90
2018-12-08T18:38:42.760Z,99.90
2018-12-08T18:41:17.277Z,99.90
2018-12-08T18:43:44.600Z,99.90
2018-12-08T18:46:13.042Z,99.90
2018-12-08T18:48:41.593Z,99.90
2018-12-08T18:51:10.118Z,99.90
2018-12-08T18:53:39.781Z,99.90
2018-12-08T18:56:08.167Z,99.90
2018-12-08T18:58:36.638Z,99.90
2018-12-08T19:01:05.282Z,99.90
2018-12-08T19:03:33.673Z,99.90
2018-12-08T19:06:04.440Z,99.90
2018-12-08T19:08:32.975Z,99.90
2018-12-08T19:11:01.589Z,99.90
2018-12-08T19:13:29.979Z,99.90
2018-12-08T19:15:58.397Z,99.90
2018-12-08T19:18:32.077Z,99.90
2018-12-08T19:21:00.484Z,99.90
2018-12-08T19:23:28.972Z,99.90
2018-12-08T19:25:57.585Z,99.90
2018-12-08T19:28:24.865Z,99.90
2018-12-08T19:30:54.492Z,99.90
2018-12-08T19:33:22.908Z,99.90
2018-12-08T19:35:51.401Z,99.90
2018-12-08T19:38:19.906Z,99.90
2018-12-08T19:40:48.298Z,99.90
2018-12-08T19:43:26.951Z,99.90
2018-12-08T19:45:56.175Z,99.90
2018-12-08T19:48:23.472Z,99.90
2018-12-08T19:50:51.986Z,99.90
2018-12-08T19:53:23.380Z,99.90
2018-12-08T19:55:50.661Z,99.90
2018-12-08T19:58:19.092Z,99.90
2018-12-08T20:00:47.601Z,99.90
2018-12-08T20:03:15.990Z,99.90
2018-12-08T20:05:48.886Z,99.90
2018-12-08T20:08:17.357Z,99.90
2018-12-08T20:10:45.813Z,99.90
2018-12-08T20:13:14.322Z,99.90
2018-12-08T20:15:42.756Z,99.90
2018-12-08T20:18:15.223Z,99.90
2018-12-08T20:20:42.586Z,99.90
2018-12-08T20:23:10.138Z,99.90
2018-12-08T20:25:38.700Z,99.90
2018-12-08T20:28:07.169Z,99.90
2018-12-08T20:30:35.456Z,99.90
2018-12-08T20:33:08.571Z,99.90
2018-12-08T20:35:35.861Z,99.90
2018-12-08T20:38:04.316Z,99.90
2018-12-08T20:40:32.844Z,99.90
2018-12-08T20:43:01.275Z,99.90
2018-12-08T20:45:34.386Z,99.90
2018-12-08T20:48:02.706Z,99.90
2018-12-08T20:50:31.097Z,99.90
2018-12-08T20:52:59.617Z,99.90
2018-12-08T20:55:28.354Z,99.90
2018-12-08T20:57:58.388Z,99.90
2018-12-08T21:00:26.758Z,99.90
2018-12-08T21:02:55.152Z,99.90
2018-12-08T21:05:23.601Z,99.90
2018-12-08T21:07:51.961Z,99.90
2018-12-08T21:10:23.722Z,99.90
2018-12-08T21:12:52.166Z,99.90
2018-12-08T21:15:20.520Z,99.90
2018-12-08T21:17:48.929Z,99.90
2018-12-08T21:20:17.441Z,99.90
2018-12-08T21:22:45.849Z,99.90
2018-12-08T21:25:14.170Z,99.90
2018-12-08T21:27:42.589Z,99.90
2018-12-08T21:30:11.007Z,99.90
2018-12-08T21:32:39.814Z,99.90
2018-12-08T21:35:12.043Z,99.90
2018-12-08T21:37:39.403Z,99.90
2018-12-08T21:40:15.593Z,99.90
2018-12-08T21:42:42.999Z,99.90
2018-12-08T21:45:17.657Z,99.90
2018-12-08T21:47:45.047Z,99.90
2018-12-08T21:50:12.475Z,99.90
2018-12-08T21:52:39.770Z,99.90
2018-12-08T21:55:08.167Z,99.90
2018-12-08T21:57:39.477Z,99.90
2018-12-08T22:00:07.471Z,99.90
2018-12-08T22:02:35.809Z,99.90
2018-12-08T22:05:04.532Z,99.90
2018-12-08T22:07:33.025Z,99.90
2018-12-08T22:10:04.066Z,99.90
2018-12-08T22:12:32.405Z,99.90
2018-12-08T22:15:05.424Z,99.90
2018-12-08T22:17:34.033Z,99.90
2018-12-08T22:20:05.142Z,99.90
2018-12-08T22:22:33.551Z,99.90
2018-12-08T22:25:02.171Z,99.90
2018-12-08T22:27:30.481Z,99.90
2018-12-08T22:29:59.074Z,99.90
2018-12-08T22:32:29.787Z,99.90
2018-12-08T22:34:58.216Z,99.90
2018-12-08T22:37:26.643Z,99.90
2018-12-08T22:39:55.147Z,99.90
2018-12-08T22:42:23.538Z,99.90
2018-12-08T22:44:53.245Z,99.90
2018-12-08T22:47:21.723Z,99.90
2018-12-08T22:49:50.565Z,99.90
2018-12-08T22:52:18.999Z,99.90
2018-12-08T22:54:47.393Z,99.90
2018-12-08T22:57:18.544Z,99.90
2018-12-08T22:59:46.964Z,99.90
2018-12-08T23:02:15.421Z,99.90
2018-12-08T23:04:43.850Z,99.90
2018-12-08T23:07:12.376Z,99.90
2018-12-08T23:09:42.310Z,99.90
2018-12-08T23:12:10.742Z,99.90
2018-12-08T23:14:39.249Z,99.90
2018-12-08T23:17:07.794Z,99.90
2018-12-08T23:19:36.214Z,99.90
2018-12-08T23:22:06.745Z,99.90
2018-12-08T23:24:36.153Z,99.90
2018-12-08T23:27:04.564Z,99.90
2018-12-08T23:29:32.971Z,99.90
2018-12-08T23:32:01.417Z,99.90
2018-12-08T23:34:34.527Z,99.90
2018-12-08T23:37:03.038Z,99.90
2018-12-08T23:39:38.780Z,99.90
2018-12-08T23:42:01.729Z,99.90
2018-12-08T23:44:30.362Z,99.90
2018-12-08T23:47:02.154Z,99.90
2018-12-08T23:49:29.447Z,99.90
2018-12-08T23:51:57.880Z,99.90
2018-12-08T23:54:26.462Z,99.80
2018-12-08T23:56:54.945Z,99.60
2018-12-08T23:59:27.033Z,99.90
